Overview Statistics Trail Chart Weather Telemetry Raw packets
 

This is the latest recevied weather packets stored in our database for station/object ES0THZ-13. If no packets are shown the sender has not sent any weather packets the latest 10 day(s).

<< 5 6 7 8 9 10 11 >>
Time Temp. Humidity Pressure Rain* Wind** Luminosity Snow
1788459891 15.56° C 80% 1002.2 hPa - - - -
1788458926 15° C 80% 1002.4 hPa - - - -
1788457931 14.44° C 79% 1002.1 hPa - - - -
1788456816 15° C 79% 1002.4 hPa - - - -
1788455676 15° C 78% 1001.6 hPa - - - -
1788454576 15.56° C 77% 1002.1 hPa - - - -
1788453536 16.11° C 76% 1002.6 hPa - - - -
1788452506 17.22° C 74% 1002.9 hPa - - - -
1788451531 18.33° C 73% 1002.6 hPa - - - -
1788450476 17.78° C 73% 1002.6 hPa - - - -
1788449380 19.44° C 72% 1002.5 hPa - - - -
1788448280 18.89° C 72% 1002.4 hPa - - - -
1788447240 17.78° C 74% 1003 hPa - - - -
1788446056 16.67° C 74% 1003.6 hPa - - - -
1788445040 16.67° C 73% 1003.4 hPa - - - -
1788443924 18.89° C 72% 1002.8 hPa - - - -
1788442746 18.33° C 72% 1003 hPa - - - -
1788441756 19.44° C 69% 1002.5 hPa - - - -
1788440676 19.44° C 69% 1003.8 hPa - - - -
1788439556 18.89° C 71% 1003.2 hPa - - - -
1788438468 20° C 70% 1003 hPa - - - -
1788437456 20° C 69% 1003 hPa - - - -
1788436406 21.11° C 70% 1002.9 hPa - - - -
1788435399 20° C 71% 1003.7 hPa - - - -
1788434231 20° C 72% 1003.4 hPa - - - -

* Rain since midnight (hover to see other rain measurements)
** Current wind speed in m/s (hover to see current wind gust speed)